Aviation Digital Data Service (ADDS)

Output produced by METARs form (1826 UTC 22 November 2017)
found at http://www.aviationweather.gov/adds/metars/
 
DXXX 221800Z 20007KT 9999 FEW013 28/25 Q1010 NOSIG
TAF DXXX 221700Z 2218/2324 20010KT 9999 SCT012 
     BECMG 2222/2224 26004KT 
     BECMG 2309/2311 20010KT 
     PROB30 
     TEMPO 2314/2319 TS BKN013 FEW020CB
       
DXNG 221800Z VRB02KT CAVOK 30/14 Q1012 NOSIG
TAF DXNG 221700Z 2218/2318 VRB05KT 9999 FEW010